sensor_id;sensor_type;location;lat;lon;timestamp;P1;durP1;ratioP1;P2;durP2;ratioP2
69203;SDS011;56317;27.658;85.326;2023-10-08T00:01:16;17.52;;;7.90;;
69203;SDS011;56317;27.658;85.326;2023-10-08T00:03:43;17.55;;;8.23;;
69203;SDS011;56317;27.658;85.326;2023-10-08T00:06:23;13.80;;;7.00;;
69203;SDS011;56317;27.658;85.326;2023-10-08T00:08:52;14.68;;;7.95;;
69203;SDS011;56317;27.658;85.326;2023-10-08T00:11:28;16.48;;;7.47;;
69203;SDS011;56317;27.658;85.326;2023-10-08T00:13:55;13.35;;;8.30;;
69203;SDS011;56317;27.658;85.326;2023-10-08T00:16:22;17.33;;;7.88;;
69203;SDS011;56317;27.658;85.326;2023-10-08T00:18:50;17.77;;;8.25;;
69203;SDS011;56317;27.658;85.326;2023-10-08T00:21:17;20.63;;;9.40;;
69203;SDS011;56317;27.658;85.326;2023-10-08T00:23:46;17.45;;;8.13;;
69203;SDS011;56317;27.658;85.326;2023-10-08T00:26:18;21.02;;;8.55;;
69203;SDS011;56317;27.658;85.326;2023-10-08T00:28:59;18.30;;;8.18;;
69203;SDS011;56317;27.658;85.326;2023-10-08T00:31:48;14.38;;;8.70;;
69203;SDS011;56317;27.658;85.326;2023-10-08T00:34:16;22.35;;;8.88;;
69203;SDS011;56317;27.658;85.326;2023-10-08T00:36:45;20.58;;;7.85;;
69203;SDS011;56317;27.658;85.326;2023-10-08T00:39:14;26.55;;;9.50;;
69203;SDS011;56317;27.658;85.326;2023-10-08T00:42:02;14.20;;;7.68;;
69203;SDS011;56317;27.658;85.326;2023-10-08T00:44:31;20.27;;;10.80;;
69203;SDS011;56317;27.658;85.326;2023-10-08T00:47:03;17.02;;;9.38;;
69203;SDS011;56317;27.658;85.326;2023-10-08T00:49:32;17.85;;;8.95;;
69203;SDS011;56317;27.658;85.326;2023-10-08T00:52:19;19.65;;;8.98;;
69203;SDS011;56317;27.658;85.326;2023-10-08T00:54:55;17.45;;;8.77;;
69203;SDS011;56317;27.658;85.326;2023-10-08T00:57:34;19.48;;;9.00;;
69203;SDS011;56317;27.658;85.326;2023-10-08T01:00:05;19.87;;;10.30;;
69203;SDS011;56317;27.658;85.326;2023-10-08T01:02:40;20.90;;;10.02;;
69203;SDS011;56317;27.658;85.326;2023-10-08T01:05:15;26.27;;;13.55;;
69203;SDS011;56317;27.658;85.326;2023-10-08T01:07:51;27.08;;;12.52;;
69203;SDS011;56317;27.658;85.326;2023-10-08T01:10:21;23.95;;;12.32;;
69203;SDS011;56317;27.658;85.326;2023-10-08T01:12:50;27.50;;;12.45;;
69203;SDS011;56317;27.658;85.326;2023-10-08T01:15:20;21.25;;;10.57;;
69203;SDS011;56317;27.658;85.326;2023-10-08T01:17:55;22.73;;;11.15;;
69203;SDS011;56317;27.658;85.326;2023-10-08T01:20:40;23.13;;;12.55;;
69203;SDS011;56317;27.658;85.326;2023-10-08T01:23:11;21.38;;;11.25;;
69203;SDS011;56317;27.658;85.326;2023-10-08T01:25:46;24.52;;;11.15;;
69203;SDS011;56317;27.658;85.326;2023-10-08T01:28:18;25.92;;;12.15;;
69203;SDS011;56317;27.658;85.326;2023-10-08T01:30:55;18.98;;;11.10;;
69203;SDS011;56317;27.658;85.326;2023-10-08T01:33:26;22.70;;;12.50;;
69203;SDS011;56317;27.658;85.326;2023-10-08T01:38:30;19.63;;;10.43;;
69203;SDS011;56317;27.658;85.326;2023-10-08T01:41:00;21.77;;;11.27;;
69203;SDS011;56317;27.658;85.326;2023-10-08T01:43:47;24.75;;;10.75;;
69203;SDS011;56317;27.658;85.326;2023-10-08T01:46:17;25.02;;;12.00;;
69203;SDS011;56317;27.658;85.326;2023-10-08T01:48:47;25.70;;;13.77;;
69203;SDS011;56317;27.658;85.326;2023-10-08T01:51:25;28.63;;;14.18;;
69203;SDS011;56317;27.658;85.326;2023-10-08T01:54:02;26.88;;;13.00;;
69203;SDS011;56317;27.658;85.326;2023-10-08T01:56:42;30.45;;;12.80;;
69203;SDS011;56317;27.658;85.326;2023-10-08T01:59:10;24.95;;;12.55;;
69203;SDS011;56317;27.658;85.326;2023-10-08T02:01:40;23.88;;;12.68;;
69203;SDS011;56317;27.658;85.326;2023-10-08T02:04:08;25.05;;;12.60;;
69203;SDS011;56317;27.658;85.326;2023-10-08T02:06:37;22.52;;;12.43;;
69203;SDS011;56317;27.658;85.326;2023-10-08T02:09:08;20.75;;;12.07;;
69203;SDS011;56317;27.658;85.326;2023-10-08T02:11:45;24.45;;;12.65;;
69203;SDS011;56317;27.658;85.326;2023-10-08T02:14:19;19.83;;;11.00;;
69203;SDS011;56317;27.658;85.326;2023-10-08T02:16:48;19.65;;;10.75;;
69203;SDS011;56317;27.658;85.326;2023-10-08T02:19:18;21.83;;;11.65;;
69203;SDS011;56317;27.658;85.326;2023-10-08T02:21:52;18.00;;;10.10;;
69203;SDS011;56317;27.658;85.326;2023-10-08T02:24:20;19.52;;;11.15;;
69203;SDS011;56317;27.658;85.326;2023-10-08T02:26:51;17.15;;;9.43;;
69203;SDS011;56317;27.658;85.326;2023-10-08T02:29:25;16.65;;;9.15;;
69203;SDS011;56317;27.658;85.326;2023-10-08T02:31:55;19.83;;;10.20;;
69203;SDS011;56317;27.658;85.326;2023-10-08T02:34:23;19.17;;;10.55;;
69203;SDS011;56317;27.658;85.326;2023-10-08T02:36:50;22.25;;;12.85;;
69203;SDS011;56317;27.658;85.326;2023-10-08T02:39:17;22.83;;;13.07;;
69203;SDS011;56317;27.658;85.326;2023-10-08T02:41:50;21.85;;;11.93;;
69203;SDS011;56317;27.658;85.326;2023-10-08T02:44:19;19.45;;;10.98;;
69203;SDS011;56317;27.658;85.326;2023-10-08T02:46:48;17.45;;;10.23;;
69203;SDS011;56317;27.658;85.326;2023-10-08T02:49:17;19.92;;;11.35;;
69203;SDS011;56317;27.658;85.326;2023-10-08T02:51:53;22.30;;;12.70;;
69203;SDS011;56317;27.658;85.326;2023-10-08T02:54:21;19.55;;;11.43;;
69203;SDS011;56317;27.658;85.326;2023-10-08T02:56:56;20.55;;;11.60;;
69203;SDS011;56317;27.658;85.326;2023-10-08T02:59:35;23.95;;;12.20;;
69203;SDS011;56317;27.658;85.326;2023-10-08T03:02:09;20.52;;;11.40;;
69203;SDS011;56317;27.658;85.326;2023-10-08T03:04:55;20.92;;;11.23;;
69203;SDS011;56317;27.658;85.326;2023-10-08T03:07:22;21.88;;;12.30;;
69203;SDS011;56317;27.658;85.326;2023-10-08T03:09:57;23.58;;;13.07;;
69203;SDS011;56317;27.658;85.326;2023-10-08T03:12:51;22.92;;;11.90;;
69203;SDS011;56317;27.658;85.326;2023-10-08T03:15:18;24.60;;;12.57;;
69203;SDS011;56317;27.658;85.326;2023-10-08T03:17:55;23.27;;;11.18;;
69203;SDS011;56317;27.658;85.326;2023-10-08T03:20:23;19.40;;;11.73;;
69203;SDS011;56317;27.658;85.326;2023-10-08T03:23:10;21.23;;;11.52;;
69203;SDS011;56317;27.658;85.326;2023-10-08T03:28:36;18.63;;;10.98;;
69203;SDS011;56317;27.658;85.326;2023-10-08T03:31:06;22.55;;;12.00;;
69203;SDS011;56317;27.658;85.326;2023-10-08T03:33:42;29.83;;;13.13;;
69203;SDS011;56317;27.658;85.326;2023-10-08T03:36:14;20.73;;;13.00;;
69203;SDS011;56317;27.658;85.326;2023-10-08T03:38:48;23.13;;;13.30;;
69203;SDS011;56317;27.658;85.326;2023-10-08T03:41:21;31.65;;;16.92;;
69203;SDS011;56317;27.658;85.326;2023-10-08T03:43:55;53.20;;;23.42;;
69203;SDS011;56317;27.658;85.326;2023-10-08T03:46:36;29.50;;;16.88;;
69203;SDS011;56317;27.658;85.326;2023-10-08T03:49:08;27.77;;;14.10;;
69203;SDS011;56317;27.658;85.326;2023-10-08T03:51:48;22.20;;;12.68;;
69203;SDS011;56317;27.658;85.326;2023-10-08T03:54:18;22.58;;;13.23;;
69203;SDS011;56317;27.658;85.326;2023-10-08T03:56:56;25.77;;;15.23;;
69203;SDS011;56317;27.658;85.326;2023-10-08T03:59:23;24.50;;;13.27;;
69203;SDS011;56317;27.658;85.326;2023-10-08T04:02:00;26.38;;;13.90;;
69203;SDS011;56317;27.658;85.326;2023-10-08T04:04:47;30.58;;;13.93;;
69203;SDS011;56317;27.658;85.326;2023-10-08T04:07:18;22.42;;;13.68;;
69203;SDS011;56317;27.658;85.326;2023-10-08T04:10:14;22.90;;;13.27;;
69203;SDS011;56317;27.658;85.326;2023-10-08T04:13:01;24.38;;;13.85;;
69203;SDS011;56317;27.658;85.326;2023-10-08T04:15:29;24.25;;;13.05;;
69203;SDS011;56317;27.658;85.326;2023-10-08T04:17:56;21.08;;;13.10;;
69203;SDS011;56317;27.658;85.326;2023-10-08T04:20:28;22.33;;;13.40;;
69203;SDS011;56317;27.658;85.326;2023-10-08T04:23:06;23.67;;;12.80;;
69203;SDS011;56317;27.658;85.326;2023-10-08T04:25:44;21.65;;;12.30;;
69203;SDS011;56317;27.658;85.326;2023-10-08T04:28:12;24.20;;;12.55;;
69203;SDS011;56317;27.658;85.326;2023-10-08T04:30:46;18.25;;;11.18;;
69203;SDS011;56317;27.658;85.326;2023-10-08T04:33:16;20.80;;;12.67;;
69203;SDS011;56317;27.658;85.326;2023-10-08T04:35:45;19.77;;;12.07;;
69203;SDS011;56317;27.658;85.326;2023-10-08T04:38:22;20.02;;;12.35;;
69203;SDS011;56317;27.658;85.326;2023-10-08T04:40:54;18.23;;;11.95;;
69203;SDS011;56317;27.658;85.326;2023-10-08T04:43:27;23.25;;;12.07;;
69203;SDS011;56317;27.658;85.326;2023-10-08T04:45:59;20.85;;;11.93;;
69203;SDS011;56317;27.658;85.326;2023-10-08T04:48:49;22.33;;;11.50;;
69203;SDS011;56317;27.658;85.326;2023-10-08T04:51:21;18.45;;;10.85;;
69203;SDS011;56317;27.658;85.326;2023-10-08T04:53:48;22.10;;;12.65;;
69203;SDS011;56317;27.658;85.326;2023-10-08T04:56:15;19.80;;;12.48;;
69203;SDS011;56317;27.658;85.326;2023-10-08T04:58:43;22.20;;;12.75;;
69203;SDS011;56317;27.658;85.326;2023-10-08T05:01:14;29.73;;;13.30;;
69203;SDS011;56317;27.658;85.326;2023-10-08T05:04:04;21.13;;;11.57;;
69203;SDS011;56317;27.658;85.326;2023-10-08T05:06:32;19.52;;;11.85;;
69203;SDS011;56317;27.658;85.326;2023-10-08T05:11:46;21.67;;;11.23;;
69203;SDS011;56317;27.658;85.326;2023-10-08T05:14:17;21.55;;;11.70;;
69203;SDS011;56317;27.658;85.326;2023-10-08T05:17:14;22.73;;;11.82;;
69203;SDS011;56317;27.658;85.326;2023-10-08T05:19:44;20.07;;;10.33;;
69203;SDS011;56317;27.658;85.326;2023-10-08T05:22:34;18.92;;;9.85;;
69203;SDS011;56317;27.658;85.326;2023-10-08T05:25:04;14.77;;;8.93;;
69203;SDS011;56317;27.658;85.326;2023-10-08T05:27:37;17.98;;;9.88;;
69203;SDS011;56317;27.658;85.326;2023-10-08T05:33:05;19.40;;;10.23;;
69203;SDS011;56317;27.658;85.326;2023-10-08T05:35:52;22.90;;;11.80;;
69203;SDS011;56317;27.658;85.326;2023-10-08T05:38:35;19.73;;;9.98;;
69203;SDS011;56317;27.658;85.326;2023-10-08T05:41:14;17.08;;;10.68;;
69203;SDS011;56317;27.658;85.326;2023-10-08T05:43:54;16.95;;;10.25;;
69203;SDS011;56317;27.658;85.326;2023-10-08T05:46:39;18.13;;;9.23;;
69203;SDS011;56317;27.658;85.326;2023-10-08T05:49:17;19.73;;;9.88;;
69203;SDS011;56317;27.658;85.326;2023-10-08T05:51:57;19.73;;;8.83;;
69203;SDS011;56317;27.658;85.326;2023-10-08T05:54:25;16.08;;;9.23;;
69203;SDS011;56317;27.658;85.326;2023-10-08T05:56:59;14.07;;;8.52;;
69203;SDS011;56317;27.658;85.326;2023-10-08T05:59:53;14.63;;;8.20;;
69203;SDS011;56317;27.658;85.326;2023-10-08T06:02:23;17.90;;;8.70;;
69203;SDS011;56317;27.658;85.326;2023-10-08T06:04:59;18.27;;;9.10;;
69203;SDS011;56317;27.658;85.326;2023-10-08T06:07:39;16.50;;;8.63;;
69203;SDS011;56317;27.658;85.326;2023-10-08T06:10:18;13.70;;;8.18;;
69203;SDS011;56317;27.658;85.326;2023-10-08T06:13:08;18.33;;;8.82;;
69203;SDS011;56317;27.658;85.326;2023-10-08T06:15:36;16.08;;;9.25;;
69203;SDS011;56317;27.658;85.326;2023-10-08T06:18:32;16.67;;;8.68;;
69203;SDS011;56317;27.658;85.326;2023-10-08T06:21:00;22.48;;;9.50;;
69203;SDS011;56317;27.658;85.326;2023-10-08T06:26:13;13.18;;;7.82;;
69203;SDS011;56317;27.658;85.326;2023-10-08T06:28:42;14.10;;;7.65;;
69203;SDS011;56317;27.658;85.326;2023-10-08T06:31:13;16.02;;;7.93;;
69203;SDS011;56317;27.658;85.326;2023-10-08T06:33:42;16.48;;;8.25;;
69203;SDS011;56317;27.658;85.326;2023-10-08T06:36:10;12.27;;;7.07;;
69203;SDS011;56317;27.658;85.326;2023-10-08T06:38:38;13.45;;;8.23;;
69203;SDS011;56317;27.658;85.326;2023-10-08T06:41:07;13.05;;;7.82;;
69203;SDS011;56317;27.658;85.326;2023-10-08T06:43:44;12.80;;;8.25;;
69203;SDS011;56317;27.658;85.326;2023-10-08T06:46:30;14.13;;;7.82;;
69203;SDS011;56317;27.658;85.326;2023-10-08T06:51:40;11.35;;;7.95;;
69203;SDS011;56317;27.658;85.326;2023-10-08T06:54:11;14.32;;;8.13;;
69203;SDS011;56317;27.658;85.326;2023-10-08T06:56:43;15.20;;;7.90;;
69203;SDS011;56317;27.658;85.326;2023-10-08T06:59:17;15.50;;;6.78;;
69203;SDS011;56317;27.658;85.326;2023-10-08T07:01:48;13.35;;;7.00;;
69203;SDS011;56317;27.658;85.326;2023-10-08T07:04:17;11.85;;;7.10;;
69203;SDS011;56317;27.658;85.326;2023-10-08T07:06:47;13.40;;;7.85;;
69203;SDS011;56317;27.658;85.326;2023-10-08T07:09:16;12.15;;;7.68;;
69203;SDS011;56317;27.658;85.326;2023-10-08T07:11:54;11.02;;;6.65;;
69203;SDS011;56317;27.658;85.326;2023-10-08T07:14:22;11.23;;;6.43;;
69203;SDS011;56317;27.658;85.326;2023-10-08T07:16:53;11.50;;;6.72;;
69203;SDS011;56317;27.658;85.326;2023-10-08T07:19:27;16.52;;;6.85;;
69203;SDS011;56317;27.658;85.326;2023-10-08T07:22:04;12.30;;;6.88;;
69203;SDS011;56317;27.658;85.326;2023-10-08T07:24:43;13.73;;;7.73;;
69203;SDS011;56317;27.658;85.326;2023-10-08T07:27:16;20.20;;;8.15;;
69203;SDS011;56317;27.658;85.326;2023-10-08T07:29:47;11.63;;;6.68;;
69203;SDS011;56317;27.658;85.326;2023-10-08T07:32:15;10.75;;;6.90;;
69203;SDS011;56317;27.658;85.326;2023-10-08T07:34:44;11.70;;;6.97;;
69203;SDS011;56317;27.658;85.326;2023-10-08T07:37:11;10.02;;;6.35;;
69203;SDS011;56317;27.658;85.326;2023-10-08T07:39:39;12.60;;;7.60;;
69203;SDS011;56317;27.658;85.326;2023-10-08T07:42:12;15.63;;;7.70;;
69203;SDS011;56317;27.658;85.326;2023-10-08T07:44:39;12.45;;;7.57;;
69203;SDS011;56317;27.658;85.326;2023-10-08T07:47:07;12.48;;;7.90;;
69203;SDS011;56317;27.658;85.326;2023-10-08T07:52:04;12.50;;;7.38;;
69203;SDS011;56317;27.658;85.326;2023-10-08T07:54:31;21.05;;;8.48;;
69203;SDS011;56317;27.658;85.326;2023-10-08T07:57:00;14.30;;;8.48;;
69203;SDS011;56317;27.658;85.326;2023-10-08T07:59:44;15.93;;;8.27;;
69203;SDS011;56317;27.658;85.326;2023-10-08T08:02:13;18.35;;;9.82;;
69203;SDS011;56317;27.658;85.326;2023-10-08T08:04:42;16.38;;;9.23;;
69203;SDS011;56317;27.658;85.326;2023-10-08T08:07:11;15.80;;;9.40;;
69203;SDS011;56317;27.658;85.326;2023-10-08T08:09:42;13.05;;;7.90;;
69203;SDS011;56317;27.658;85.326;2023-10-08T08:12:26;16.42;;;9.02;;
69203;SDS011;56317;27.658;85.326;2023-10-08T08:14:57;20.45;;;9.30;;
69203;SDS011;56317;27.658;85.326;2023-10-08T08:17:26;15.48;;;8.20;;
69203;SDS011;56317;27.658;85.326;2023-10-08T08:19:56;20.45;;;9.40;;
69203;SDS011;56317;27.658;85.326;2023-10-08T08:22:23;15.98;;;10.52;;
69203;SDS011;56317;27.658;85.326;2023-10-08T08:24:56;18.45;;;9.38;;
69203;SDS011;56317;27.658;85.326;2023-10-08T08:27:44;14.27;;;9.02;;
69203;SDS011;56317;27.658;85.326;2023-10-08T08:30:14;19.77;;;9.43;;
69203;SDS011;56317;27.658;85.326;2023-10-08T08:32:44;15.15;;;9.40;;
69203;SDS011;56317;27.658;85.326;2023-10-08T08:35:14;14.85;;;8.98;;
69203;SDS011;56317;27.658;85.326;2023-10-08T08:37:46;14.85;;;9.40;;
69203;SDS011;56317;27.658;85.326;2023-10-08T08:40:17;16.17;;;9.25;;
69203;SDS011;56317;27.658;85.326;2023-10-08T08:42:45;19.95;;;8.65;;
69203;SDS011;56317;27.658;85.326;2023-10-08T08:45:21;17.73;;;9.38;;
69203;SDS011;56317;27.658;85.326;2023-10-08T08:47:52;21.50;;;10.40;;
69203;SDS011;56317;27.658;85.326;2023-10-08T08:50:21;16.33;;;9.95;;
69203;SDS011;56317;27.658;85.326;2023-10-08T08:52:48;21.95;;;10.50;;
69203;SDS011;56317;27.658;85.326;2023-10-08T08:55:17;21.92;;;10.70;;
69203;SDS011;56317;27.658;85.326;2023-10-08T08:57:47;16.98;;;9.07;;
69203;SDS011;56317;27.658;85.326;2023-10-08T09:02:45;19.42;;;9.82;;
69203;SDS011;56317;27.658;85.326;2023-10-08T09:05:13;19.63;;;10.50;;
69203;SDS011;56317;27.658;85.326;2023-10-08T09:07:57;17.23;;;10.63;;
69203;SDS011;56317;27.658;85.326;2023-10-08T09:10:28;16.73;;;10.48;;
69203;SDS011;56317;27.658;85.326;2023-10-08T09:13:03;16.27;;;9.90;;
69203;SDS011;56317;27.658;85.326;2023-10-08T09:15:32;15.60;;;9.90;;
69203;SDS011;56317;27.658;85.326;2023-10-08T09:18:00;20.42;;;9.63;;
69203;SDS011;56317;27.658;85.326;2023-10-08T09:23:06;19.15;;;11.27;;
69203;SDS011;56317;27.658;85.326;2023-10-08T09:25:40;19.10;;;11.57;;
69203;SDS011;56317;27.658;85.326;2023-10-08T09:28:09;21.50;;;11.25;;
69203;SDS011;56317;27.658;85.326;2023-10-08T09:30:40;15.90;;;9.90;;
69203;SDS011;56317;27.658;85.326;2023-10-08T09:33:08;17.40;;;10.52;;
69203;SDS011;56317;27.658;85.326;2023-10-08T09:35:36;18.52;;;10.48;;
69203;SDS011;56317;27.658;85.326;2023-10-08T09:38:04;19.75;;;10.68;;
69203;SDS011;56317;27.658;85.326;2023-10-08T09:40:37;17.15;;;9.73;;
69203;SDS011;56317;27.658;85.326;2023-10-08T09:43:11;17.85;;;10.77;;
69203;SDS011;56317;27.658;85.326;2023-10-08T09:45:47;19.23;;;11.43;;
69203;SDS011;56317;27.658;85.326;2023-10-08T09:48:19;16.25;;;9.85;;
69203;SDS011;56317;27.658;85.326;2023-10-08T09:50:48;18.58;;;11.43;;
69203;SDS011;56317;27.658;85.326;2023-10-08T09:53:18;19.97;;;12.67;;
69203;SDS011;56317;27.658;85.326;2023-10-08T09:56:02;18.50;;;11.55;;
69203;SDS011;56317;27.658;85.326;2023-10-08T09:58:39;25.02;;;13.30;;
69203;SDS011;56317;27.658;85.326;2023-10-08T10:01:09;20.05;;;12.38;;
69203;SDS011;56317;27.658;85.326;2023-10-08T10:03:37;25.38;;;13.05;;
69203;SDS011;56317;27.658;85.326;2023-10-08T10:06:11;21.45;;;12.40;;
69203;SDS011;56317;27.658;85.326;2023-10-08T10:08:41;24.67;;;14.07;;
69203;SDS011;56317;27.658;85.326;2023-10-08T10:11:10;31.05;;;16.33;;
69203;SDS011;56317;27.658;85.326;2023-10-08T10:13:45;30.65;;;16.10;;
69203;SDS011;56317;27.658;85.326;2023-10-08T10:16:17;54.25;;;23.77;;
69203;SDS011;56317;27.658;85.326;2023-10-08T10:18:49;28.13;;;16.48;;
69203;SDS011;56317;27.658;85.326;2023-10-08T10:21:29;40.95;;;19.17;;
69203;SDS011;56317;27.658;85.326;2023-10-08T10:23:58;28.83;;;14.52;;
69203;SDS011;56317;27.658;85.326;2023-10-08T10:31:42;27.67;;;13.52;;
69203;SDS011;56317;27.658;85.326;2023-10-08T10:34:13;25.33;;;13.77;;
69203;SDS011;56317;27.658;85.326;2023-10-08T10:36:42;25.88;;;14.13;;
69203;SDS011;56317;27.658;85.326;2023-10-08T10:39:18;24.67;;;14.18;;
69203;SDS011;56317;27.658;85.326;2023-10-08T10:41:57;26.60;;;14.27;;
69203;SDS011;56317;27.658;85.326;2023-10-08T10:44:32;26.00;;;14.05;;
69203;SDS011;56317;27.658;85.326;2023-10-08T10:47:04;27.23;;;13.65;;
69203;SDS011;56317;27.658;85.326;2023-10-08T10:49:43;27.30;;;16.65;;
69203;SDS011;56317;27.658;85.326;2023-10-08T10:52:27;29.90;;;15.77;;
69203;SDS011;56317;27.658;85.326;2023-10-08T10:57:41;27.90;;;13.35;;
69203;SDS011;56317;27.658;85.326;2023-10-08T11:00:36;27.00;;;13.32;;
69203;SDS011;56317;27.658;85.326;2023-10-08T11:03:04;27.95;;;13.98;;
69203;SDS011;56317;27.658;85.326;2023-10-08T11:05:46;27.42;;;14.68;;
69203;SDS011;56317;27.658;85.326;2023-10-08T11:08:17;26.52;;;14.65;;
69203;SDS011;56317;27.658;85.326;2023-10-08T11:10:46;22.98;;;15.05;;
69203;SDS011;56317;27.658;85.326;2023-10-08T11:13:20;25.08;;;12.98;;
69203;SDS011;56317;27.658;85.326;2023-10-08T11:15:54;22.90;;;13.38;;
69203;SDS011;56317;27.658;85.326;2023-10-08T11:18:24;29.75;;;14.57;;
69203;SDS011;56317;27.658;85.326;2023-10-08T11:21:05;32.42;;;14.90;;
69203;SDS011;56317;27.658;85.326;2023-10-08T11:23:42;26.88;;;14.32;;
69203;SDS011;56317;27.658;85.326;2023-10-08T11:26:21;30.65;;;15.65;;
69203;SDS011;56317;27.658;85.326;2023-10-08T11:29:01;33.25;;;17.85;;
69203;SDS011;56317;27.658;85.326;2023-10-08T11:31:29;29.27;;;14.30;;
69203;SDS011;56317;27.658;85.326;2023-10-08T11:34:00;29.27;;;15.37;;
69203;SDS011;56317;27.658;85.326;2023-10-08T11:36:38;34.40;;;17.10;;
69203;SDS011;56317;27.658;85.326;2023-10-08T11:39:18;27.40;;;14.15;;
69203;SDS011;56317;27.658;85.326;2023-10-08T11:42:01;29.15;;;16.65;;
69203;SDS011;56317;27.658;85.326;2023-10-08T11:44:52;31.85;;;16.15;;
69203;SDS011;56317;27.658;85.326;2023-10-08T11:47:19;31.30;;;16.38;;
69203;SDS011;56317;27.658;85.326;2023-10-08T11:49:47;54.40;;;23.52;;
69203;SDS011;56317;27.658;85.326;2023-10-08T11:52:34;46.88;;;21.48;;
69203;SDS011;56317;27.658;85.326;2023-10-08T11:55:08;45.88;;;20.65;;
69203;SDS011;56317;27.658;85.326;2023-10-08T11:57:35;92.40;;;43.22;;
69203;SDS011;56317;27.658;85.326;2023-10-08T12:00:13;71.65;;;38.83;;
69203;SDS011;56317;27.658;85.326;2023-10-08T12:02:51;56.67;;;29.52;;
69203;SDS011;56317;27.658;85.326;2023-10-08T12:05:21;53.30;;;24.88;;
69203;SDS011;56317;27.658;85.326;2023-10-08T12:07:49;36.67;;;19.80;;
69203;SDS011;56317;27.658;85.326;2023-10-08T12:10:21;50.60;;;21.33;;
69203;SDS011;56317;27.658;85.326;2023-10-08T12:12:51;38.55;;;20.27;;
69203;SDS011;56317;27.658;85.326;2023-10-08T12:15:20;44.38;;;21.67;;
69203;SDS011;56317;27.658;85.326;2023-10-08T12:17:48;41.63;;;20.23;;
69203;SDS011;56317;27.658;85.326;2023-10-08T12:20:40;44.33;;;22.17;;
69203;SDS011;56317;27.658;85.326;2023-10-08T12:23:12;44.30;;;20.88;;
69203;SDS011;56317;27.658;85.326;2023-10-08T12:25:59;41.85;;;20.10;;
69203;SDS011;56317;27.658;85.326;2023-10-08T12:28:28;39.17;;;19.98;;
69203;SDS011;56317;27.658;85.326;2023-10-08T12:30:55;49.45;;;22.02;;
69203;SDS011;56317;27.658;85.326;2023-10-08T12:33:23;41.38;;;20.27;;
69203;SDS011;56317;27.658;85.326;2023-10-08T12:35:51;44.75;;;21.42;;
69203;SDS011;56317;27.658;85.326;2023-10-08T12:38:19;43.67;;;20.73;;
69203;SDS011;56317;27.658;85.326;2023-10-08T12:40:49;47.67;;;20.40;;
69203;SDS011;56317;27.658;85.326;2023-10-08T12:43:19;39.72;;;20.50;;
69203;SDS011;56317;27.658;85.326;2023-10-08T12:45:51;38.05;;;20.45;;
69203;SDS011;56317;27.658;85.326;2023-10-08T12:50:47;45.10;;;22.50;;
69203;SDS011;56317;27.658;85.326;2023-10-08T12:53:23;41.50;;;22.23;;
69203;SDS011;56317;27.658;85.326;2023-10-08T12:56:13;40.90;;;20.98;;
69203;SDS011;56317;27.658;85.326;2023-10-08T12:58:41;44.25;;;21.25;;
69203;SDS011;56317;27.658;85.326;2023-10-08T13:01:14;50.03;;;22.58;;
69203;SDS011;56317;27.658;85.326;2023-10-08T13:03:45;48.40;;;21.83;;
69203;SDS011;56317;27.658;85.326;2023-10-08T13:06:19;41.45;;;21.90;;
69203;SDS011;56317;27.658;85.326;2023-10-08T13:08:56;44.53;;;23.23;;
69203;SDS011;56317;27.658;85.326;2023-10-08T13:11:25;54.30;;;24.20;;
69203;SDS011;56317;27.658;85.326;2023-10-08T13:13:55;44.40;;;22.77;;
69203;SDS011;56317;27.658;85.326;2023-10-08T13:16:23;44.33;;;22.05;;
69203;SDS011;56317;27.658;85.326;2023-10-08T13:18:56;42.20;;;20.35;;
69203;SDS011;56317;27.658;85.326;2023-10-08T13:21:24;46.85;;;22.63;;
69203;SDS011;56317;27.658;85.326;2023-10-08T13:23:54;44.50;;;21.65;;
69203;SDS011;56317;27.658;85.326;2023-10-08T13:26:28;44.30;;;22.60;;
69203;SDS011;56317;27.658;85.326;2023-10-08T13:28:58;43.05;;;22.92;;
69203;SDS011;56317;27.658;85.326;2023-10-08T13:31:26;48.33;;;24.88;;
69203;SDS011;56317;27.658;85.326;2023-10-08T13:33:54;52.10;;;25.58;;
69203;SDS011;56317;27.658;85.326;2023-10-08T13:36:28;60.08;;;27.45;;
69203;SDS011;56317;27.658;85.326;2023-10-08T13:38:55;58.67;;;27.75;;
69203;SDS011;56317;27.658;85.326;2023-10-08T13:41:22;48.97;;;24.92;;
69203;SDS011;56317;27.658;85.326;2023-10-08T13:43:54;51.72;;;25.48;;
69203;SDS011;56317;27.658;85.326;2023-10-08T13:46:30;53.95;;;26.40;;
69203;SDS011;56317;27.658;85.326;2023-10-08T13:49:02;52.03;;;26.58;;
69203;SDS011;56317;27.658;85.326;2023-10-08T13:51:31;47.90;;;23.30;;
69203;SDS011;56317;27.658;85.326;2023-10-08T13:54:00;51.92;;;25.33;;
69203;SDS011;56317;27.658;85.326;2023-10-08T13:56:36;53.17;;;24.58;;
69203;SDS011;56317;27.658;85.326;2023-10-08T13:59:04;47.03;;;24.50;;
69203;SDS011;56317;27.658;85.326;2023-10-08T14:01:40;48.75;;;23.55;;
69203;SDS011;56317;27.658;85.326;2023-10-08T14:06:42;44.72;;;22.98;;
69203;SDS011;56317;27.658;85.326;2023-10-08T14:09:20;47.70;;;23.58;;
69203;SDS011;56317;27.658;85.326;2023-10-08T14:11:56;48.42;;;23.00;;
69203;SDS011;56317;27.658;85.326;2023-10-08T14:14:24;50.17;;;26.83;;
69203;SDS011;56317;27.658;85.326;2023-10-08T14:16:55;49.75;;;25.40;;
69203;SDS011;56317;27.658;85.326;2023-10-08T14:19:28;50.92;;;25.60;;
69203;SDS011;56317;27.658;85.326;2023-10-08T14:22:08;48.67;;;26.38;;
69203;SDS011;56317;27.658;85.326;2023-10-08T14:24:39;57.47;;;27.45;;
69203;SDS011;56317;27.658;85.326;2023-10-08T14:27:06;55.10;;;28.67;;
69203;SDS011;56317;27.658;85.326;2023-10-08T14:29:39;58.53;;;28.58;;
69203;SDS011;56317;27.658;85.326;2023-10-08T14:32:10;60.03;;;28.50;;
69203;SDS011;56317;27.658;85.326;2023-10-08T14:34:37;54.45;;;28.67;;
69203;SDS011;56317;27.658;85.326;2023-10-08T14:37:20;51.00;;;26.45;;
69203;SDS011;56317;27.658;85.326;2023-10-08T14:40:05;55.28;;;28.15;;
69203;SDS011;56317;27.658;85.326;2023-10-08T14:42:51;53.88;;;28.17;;
69203;SDS011;56317;27.658;85.326;2023-10-08T14:45:24;62.78;;;29.27;;
69203;SDS011;56317;27.658;85.326;2023-10-08T14:47:57;52.58;;;27.05;;
69203;SDS011;56317;27.658;85.326;2023-10-08T14:50:25;49.92;;;26.38;;
69203;SDS011;56317;27.658;85.326;2023-10-08T14:52:59;52.83;;;27.27;;
69203;SDS011;56317;27.658;85.326;2023-10-08T14:55:27;57.85;;;28.48;;
69203;SDS011;56317;27.658;85.326;2023-10-08T14:57:55;54.42;;;27.08;;
69203;SDS011;56317;27.658;85.326;2023-10-08T15:00:22;57.72;;;25.92;;
69203;SDS011;56317;27.658;85.326;2023-10-08T15:02:53;55.47;;;26.90;;
69203;SDS011;56317;27.658;85.326;2023-10-08T15:05:21;55.05;;;26.70;;
69203;SDS011;56317;27.658;85.326;2023-10-08T15:07:52;47.20;;;25.75;;
69203;SDS011;56317;27.658;85.326;2023-10-08T15:10:19;55.72;;;27.52;;
69203;SDS011;56317;27.658;85.326;2023-10-08T15:12:51;56.45;;;26.30;;
69203;SDS011;56317;27.658;85.326;2023-10-08T15:15:18;52.45;;;26.58;;
69203;SDS011;56317;27.658;85.326;2023-10-08T15:17:48;56.30;;;28.27;;
69203;SDS011;56317;27.658;85.326;2023-10-08T15:20:17;61.15;;;28.95;;
69203;SDS011;56317;27.658;85.326;2023-10-08T15:22:45;52.58;;;25.77;;
69203;SDS011;56317;27.658;85.326;2023-10-08T15:25:15;49.50;;;24.88;;